PWSweather.com
Personal Weather Stations
Station Observations
SWHWX01
St AppolinardFR 38160

St AppolinardFR 38160

Lat: 45.191, Lon: 5.268

Elevation: 1460

Station Type: Davis Vantage Pro2 Plus

www.sweetwebhome.com/?show=wxindex

High Low Average
Temperature 86.8°F30.4°C 67.2°F19.6°C 77.8°F25.4°C
Dew Point 63.8°F17.7°C 51.9°F11.1°C 58.8°F14.9°C
Winds 5.9 mph 9.5 kmh Calm Calm 2.0 mph SW3.2 kmh SW
Wind Gusts 10.0 mph16.1 kmh -- 4.0 mph6.4 kmh
Humidity 75% 41% 53%
Pressure 29.83 in1010.2 mb 29.75 in1007.5 mb -
Precipitation 0.00 in0.0 mm - -
Hour Temp Dew Point Humidity Winds Wind Gusts Pressure Precip Precip Rate Daily Precip Total
12:00 AM 73.9°F23.3°C 57.7°F14.3°C 57% 2.3 mph SSW3.7 kmh SSW 4.0 mph6.4 kmh 29.80 in1009.1 mb - 0.00 in0.0 mm 0.00 in0.0 mm
12:30 AM 73.1°F22.8°C 56.9°F13.8°C 57% 1.9 mph SSW3.1 kmh SSW 3.0 mph4.8 kmh 29.81 in1009.5 mb - 0.00 in0.0 mm 0.00 in0.0 mm
01:00 AM 72.6°F22.6°C 56.5°F13.6°C 57% 1.9 mph SSW3.1 kmh SSW 2.0 mph3.2 kmh 29.81 in1009.5 mb - 0.00 in0.0 mm 0.00 in0.0 mm
01:30 AM 72.4°F22.4°C 56.3°F13.5°C 57% 3.0 mph SSW4.8 kmh SSW 4.0 mph6.4 kmh 29.81 in1009.5 mb - 0.00 in0.0 mm 0.00 in0.0 mm
02:00 AM 71.8°F22.1°C 56.2°F13.4°C 58% 2.3 mph SSW3.7 kmh SSW 5.0 mph8.0 kmh 29.81 in1009.5 mb - 0.00 in0.0 mm 0.00 in0.0 mm
02:30 AM 71.4°F21.9°C 55.9°F13.3°C 58% 1.6 mph SSW2.6 kmh SSW 2.0 mph3.2 kmh 29.80 in1009.1 mb - 0.00 in0.0 mm 0.00 in0.0 mm
03:00 AM 70.9°F21.6°C 55.9°F13.3°C 59% 1.6 mph SSW2.6 kmh SSW 3.0 mph4.8 kmh 29.80 in1009.1 mb - 0.00 in0.0 mm 0.00 in0.0 mm
03:30 AM 71.0°F21.7°C 57.3°F14.1°C 62% 1.5 mph SSW2.4 kmh SSW 3.0 mph4.8 kmh 29.80 in1009.1 mb - 0.00 in0.0 mm 0.00 in0.0 mm
04:00 AM 70.4°F21.3°C 57.2°F14.0°C 63% Calm Calm -- 29.80 in1009.1 mb - 0.00 in0.0 mm 0.00 in0.0 mm
04:30 AM 68.0°F20.0°C 57.0°F13.9°C 68% Calm Calm -- 29.81 in1009.5 mb - 0.00 in0.0 mm 0.00 in0.0 mm
05:00 AM 67.6°F19.8°C 57.5°F14.2°C 70% 1.6 mph SSW2.6 kmh SSW 2.0 mph3.2 kmh 29.81 in1009.5 mb - 0.00 in0.0 mm 0.00 in0.0 mm
05:30 AM 67.2°F19.6°C 57.8°F14.3°C 72% Calm Calm -- 29.81 in1009.5 mb - 0.00 in0.0 mm 0.00 in0.0 mm
06:00 AM 68.4°F20.2°C 59.0°F15.0°C 72% Calm Calm -- 29.81 in1009.5 mb - 0.00 in0.0 mm 0.00 in0.0 mm
06:30 AM 70.4°F21.3°C 62.1°F16.7°C 75% Calm Calm -- 29.81 in1009.5 mb - 0.00 in0.0 mm 0.00 in0.0 mm
07:00 AM 71.7°F22.1°C 61.8°F16.6°C 71% Calm Calm 1.0 mph1.6 kmh 29.81 in1009.5 mb - 0.00 in0.0 mm 0.00 in0.0 mm
07:30 AM 72.9°F22.7°C 61.8°F16.6°C 68% 1.3 mph SSW2.1 kmh SSW 2.0 mph3.2 kmh 29.81 in1009.5 mb - 0.00 in0.0 mm 0.00 in0.0 mm
08:00 AM 72.4°F22.4°C 61.7°F16.5°C 69% 1.1 mph SSW1.8 kmh SSW 3.0 mph4.8 kmh 29.82 in1009.8 mb - 0.00 in0.0 mm 0.00 in0.0 mm
08:30 AM 73.8°F23.2°C 59.0°F15.0°C 60% 0.2 mph SSW0.3 kmh SSW 2.0 mph3.2 kmh 29.83 in1010.2 mb - 0.00 in0.0 mm 0.00 in0.0 mm
09:00 AM 74.9°F23.8°C 59.2°F15.1°C 58% 2.8 mph SSW4.5 kmh SSW 4.0 mph6.4 kmh 29.82 in1009.8 mb - 0.00 in0.0 mm 0.00 in0.0 mm
09:30 AM 76.2°F24.6°C 60.3°F15.7°C 58% 0.1 mph SSW0.2 kmh SSW 1.0 mph1.6 kmh 29.82 in1009.8 mb - 0.00 in0.0 mm 0.00 in0.0 mm
10:00 AM 79.8°F26.6°C 61.1°F16.2°C 53% 0.4 mph SSW0.6 kmh SSW 1.0 mph1.6 kmh 29.81 in1009.5 mb - 0.00 in0.0 mm 0.00 in0.0 mm
10:30 AM 80.1°F26.7°C 59.8°F15.4°C 50% 0.6 mph SSW1.0 kmh SSW 2.0 mph3.2 kmh 29.81 in1009.5 mb - 0.00 in0.0 mm 0.00 in0.0 mm
11:00 AM 80.4°F26.9°C 59.5°F15.3°C 49% 0.1 mph SSW0.2 kmh SSW 1.0 mph1.6 kmh 29.80 in1009.1 mb - 0.00 in0.0 mm 0.00 in0.0 mm
11:30 AM 83.1°F28.4°C 60.8°F16.0°C 47% 0.8 mph SSW1.3 kmh SSW 3.0 mph4.8 kmh 29.80 in1009.1 mb - 0.00 in0.0 mm 0.00 in0.0 mm
12:00 PM 83.1°F28.4°C 62.5°F16.9°C 50% 1.8 mph SSW2.9 kmh SSW 2.0 mph3.2 kmh 29.79 in1008.8 mb - 0.00 in0.0 mm 0.00 in0.0 mm
12:30 PM 83.3°F28.5°C 63.8°F17.7°C 52% 2.0 mph SSW3.2 kmh SSW 4.0 mph6.4 kmh 29.78 in1008.5 mb - 0.00 in0.0 mm 0.00 in0.0 mm
01:00 PM 83.8°F28.8°C 63.2°F17.3°C 50% 2.1 mph SSW3.4 kmh SSW 5.0 mph8.0 kmh 29.78 in1008.5 mb - 0.00 in0.0 mm 0.00 in0.0 mm
01:30 PM 84.3°F29.1°C 61.9°F16.6°C 47% 1.1 mph SSW1.8 kmh SSW 2.0 mph3.2 kmh 29.77 in1008.1 mb - 0.00 in0.0 mm 0.00 in0.0 mm
02:00 PM 85.3°F29.6°C 61.5°F16.4°C 45% 2.1 mph SSW3.4 kmh SSW 7.0 mph11.3 kmh 29.77 in1008.1 mb - 0.00 in0.0 mm 0.00 in0.0 mm
02:30 PM 86.3°F30.2°C 62.4°F16.9°C 45% 3.3 mph SSW5.3 kmh SSW 7.0 mph11.3 kmh 29.76 in1007.8 mb - 0.00 in0.0 mm 0.00 in0.0 mm
03:00 PM 86.4°F30.2°C 61.3°F16.3°C 43% 3.0 mph S4.8 kmh S 7.0 mph11.3 kmh 29.76 in1007.8 mb - 0.00 in0.0 mm 0.00 in0.0 mm
03:30 PM 86.8°F30.4°C 61.6°F16.4°C 43% 5.5 mph SW8.9 kmh SW 9.0 mph14.5 kmh 29.75 in1007.5 mb - 0.00 in0.0 mm 0.00 in0.0 mm
04:00 PM 86.3°F30.2°C 61.2°F16.2°C 43% 5.0 mph SW8.0 kmh SW 8.0 mph12.9 kmh 29.76 in1007.8 mb - 0.00 in0.0 mm 0.00 in0.0 mm
04:30 PM 86.3°F30.2°C 59.8°F15.4°C 41% 5.6 mph WSW9.0 kmh WSW 10.0 mph16.1 kmh 29.75 in1007.5 mb - 0.00 in0.0 mm 0.00 in0.0 mm
05:00 PM 85.7°F29.8°C 60.0°F15.6°C 42% 5.9 mph WSW9.5 kmh WSW 10.0 mph16.1 kmh 29.75 in1007.5 mb - 0.00 in0.0 mm 0.00 in0.0 mm
05:30 PM 85.7°F29.8°C 60.6°F15.9°C 43% 4.3 mph SW6.9 kmh SW 9.0 mph14.5 kmh 29.75 in1007.5 mb - 0.00 in0.0 mm 0.00 in0.0 mm
06:00 PM 85.2°F29.6°C 60.8°F16.0°C 44% 0.5 mph SW0.8 kmh SW 3.0 mph4.8 kmh 29.75 in1007.5 mb - 0.00 in0.0 mm 0.00 in0.0 mm
06:30 PM 84.8°F29.3°C 59.8°F15.4°C 43% 2.5 mph WSW4.0 kmh WSW 4.0 mph6.4 kmh 29.75 in1007.5 mb - 0.00 in0.0 mm 0.00 in0.0 mm
07:00 PM 83.7°F28.7°C 58.2°F14.6°C 42% 2.6 mph SW4.2 kmh SW 6.0 mph9.7 kmh 29.75 in1007.5 mb - 0.00 in0.0 mm 0.00 in0.0 mm
07:30 PM 82.2°F27.9°C 56.2°F13.4°C 41% 4.1 mph SW6.6 kmh SW 6.0 mph9.7 kmh 29.75 in1007.5 mb - 0.00 in0.0 mm 0.00 in0.0 mm
08:00 PM 80.4°F26.9°C 55.2°F12.9°C 42% 2.4 mph SW3.9 kmh SW 9.0 mph14.5 kmh 29.77 in1008.1 mb - 0.00 in0.0 mm 0.00 in0.0 mm
08:30 PM 78.9°F26.1°C 55.1°F12.8°C 44% 1.5 mph SW2.4 kmh SW 3.0 mph4.8 kmh 29.77 in1008.1 mb - 0.00 in0.0 mm 0.00 in0.0 mm
09:00 PM 77.5°F25.3°C 55.1°F12.8°C 46% 0.2 mph SW0.3 kmh SW 2.0 mph3.2 kmh 29.77 in1008.1 mb - 0.00 in0.0 mm 0.00 in0.0 mm
09:30 PM 76.8°F24.9°C 55.6°F13.1°C 48% 2.5 mph SW4.0 kmh SW 5.0 mph8.0 kmh 29.78 in1008.5 mb - 0.00 in0.0 mm 0.00 in0.0 mm
10:00 PM 76.2°F24.6°C 55.6°F13.1°C 49% 4.3 mph SW6.9 kmh SW 7.0 mph11.3 kmh 29.79 in1008.8 mb - 0.00 in0.0 mm 0.00 in0.0 mm
10:30 PM 75.5°F24.2°C 53.3°F11.8°C 46% 4.0 mph SW6.4 kmh SW 5.0 mph8.0 kmh 29.79 in1008.8 mb - 0.00 in0.0 mm 0.00 in0.0 mm
11:00 PM 74.7°F23.7°C 51.9°F11.1°C 45% 3.8 mph WSW6.1 kmh WSW 7.0 mph11.3 kmh 29.80 in1009.1 mb - 0.00 in0.0 mm 0.00 in0.0 mm
11:30 PM 73.9°F23.3°C 52.4°F11.3°C 47% 3.1 mph WSW5.0 kmh WSW 3.0 mph4.8 kmh 29.80 in1009.1 mb - 0.00 in0.0 mm 0.00 in0.0 mm